sensor_id;sensor_type;location;lat;lon;timestamp;pressure;altitude;pressure_sealevel;temperature;humidity
16834;BME280;8533;48.426;10.868;2022-12-29T00:02:02;95921.36;;;4.28;100.00
16834;BME280;8533;48.426;10.868;2022-12-29T00:04:29;95916.78;;;4.30;100.00
16834;BME280;8533;48.426;10.868;2022-12-29T00:06:57;95919.07;;;4.29;100.00
16834;BME280;8533;48.426;10.868;2022-12-29T00:09:26;95910.86;;;4.32;99.64
16834;BME280;8533;48.426;10.868;2022-12-29T00:11:53;95913.66;;;4.30;100.00
16834;BME280;8533;48.426;10.868;2022-12-29T00:14:21;95913.34;;;4.36;98.97
16834;BME280;8533;48.426;10.868;2022-12-29T00:17:06;95913.92;;;4.38;98.36
16834;BME280;8533;48.426;10.868;2022-12-29T00:19:33;95916.22;;;4.37;98.76
16834;BME280;8533;48.426;10.868;2022-12-29T00:22:19;95921.22;;;4.32;99.83
16834;BME280;8533;48.426;10.868;2022-12-29T00:25:04;95910.86;;;4.32;98.05
16834;BME280;8533;48.426;10.868;2022-12-29T00:27:50;95912.84;;;4.36;96.71
16834;BME280;8533;48.426;10.868;2022-12-29T00:30:36;95913.87;;;4.44;95.97
16834;BME280;8533;48.426;10.868;2022-12-29T00:33:25;95913.22;;;4.49;95.06
16834;BME280;8533;48.426;10.868;2022-12-29T00:36:16;95914.25;;;4.57;94.25
16834;BME280;8533;48.426;10.868;2022-12-29T00:38:48;95914.33;;;4.59;93.71
16834;BME280;8533;48.426;10.868;2022-12-29T00:41:33;95907.94;;;4.62;93.03
16834;BME280;8533;48.426;10.868;2022-12-29T00:44:18;95910.47;;;4.69;91.19
16834;BME280;8533;48.426;10.868;2022-12-29T00:46:45;95907.73;;;4.73;90.12
16834;BME280;8533;48.426;10.868;2022-12-29T00:49:13;95905.64;;;4.72;89.78
16834;BME280;8533;48.426;10.868;2022-12-29T00:52:07;95907.23;;;4.73;89.40
16834;BME280;8533;48.426;10.868;2022-12-29T00:54:38;95908.95;;;4.79;88.20
16834;BME280;8533;48.426;10.868;2022-12-29T00:57:08;95906.74;;;4.83;87.55
16834;BME280;8533;48.426;10.868;2022-12-29T00:59:37;95914.14;;;4.79;88.26
16834;BME280;8533;48.426;10.868;2022-12-29T01:02:04;95912.58;;;4.78;88.24
16834;BME280;8533;48.426;10.868;2022-12-29T01:04:32;95918.31;;;4.80;87.35
16834;BME280;8533;48.426;10.868;2022-12-29T01:06:59;95921.11;;;4.79;87.74
16834;BME280;8533;48.426;10.868;2022-12-29T01:09:27;95926.03;;;4.78;87.51
16834;BME280;8533;48.426;10.868;2022-12-29T01:12:13;95923.50;;;4.80;86.78
16834;BME280;8533;48.426;10.868;2022-12-29T01:14:40;95923.00;;;4.81;87.12
16834;BME280;8533;48.426;10.868;2022-12-29T01:17:08;95919.81;;;4.79;87.43
16834;BME280;8533;48.426;10.868;2022-12-29T01:19:35;95915.29;;;4.74;87.81
16834;BME280;8533;48.426;10.868;2022-12-29T01:22:03;95916.59;;;4.74;87.72
16834;BME280;8533;48.426;10.868;2022-12-29T01:24:30;95917.38;;;4.75;87.19
16834;BME280;8533;48.426;10.868;2022-12-29T01:26:57;95914.58;;;4.76;86.93
16834;BME280;8533;48.426;10.868;2022-12-29T01:29:25;95912.13;;;4.81;86.43
16834;BME280;8533;48.426;10.868;2022-12-29T01:31:52;95911.62;;;4.82;86.51
16834;BME280;8533;48.426;10.868;2022-12-29T01:34:20;95907.12;;;4.86;86.97
16834;BME280;8533;48.426;10.868;2022-12-29T01:36:47;95910.27;;;4.88;86.43
16834;BME280;8533;48.426;10.868;2022-12-29T01:39:14;95904.58;;;4.89;86.49
16834;BME280;8533;48.426;10.868;2022-12-29T01:41:42;95899.48;;;4.91;86.09
16834;BME280;8533;48.426;10.868;2022-12-29T01:47:15;95900.08;;;5.03;84.75
16834;BME280;8533;48.426;10.868;2022-12-29T01:49:43;95898.25;;;5.03;84.58
16834;BME280;8533;48.426;10.868;2022-12-29T01:52:11;95904.17;;;5.10;83.69
16834;BME280;8533;48.426;10.868;2022-12-29T01:54:41;95900.79;;;5.10;84.18
16834;BME280;8533;48.426;10.868;2022-12-29T01:57:11;95897.03;;;5.15;82.46
16834;BME280;8533;48.426;10.868;2022-12-29T01:59:43;95880.34;;;5.11;82.90
16834;BME280;8533;48.426;10.868;2022-12-29T02:02:10;95887.25;;;5.17;83.13
16834;BME280;8533;48.426;10.868;2022-12-29T02:04:40;95884.16;;;5.17;82.63
16834;BME280;8533;48.426;10.868;2022-12-29T02:07:17;95883.91;;;5.28;81.50
16834;BME280;8533;48.426;10.868;2022-12-29T02:09:46;95885.50;;;5.29;81.28
16834;BME280;8533;48.426;10.868;2022-12-29T02:12:13;95878.80;;;5.30;81.34
16834;BME280;8533;48.426;10.868;2022-12-29T02:14:40;95880.61;;;5.30;80.93
16834;BME280;8533;48.426;10.868;2022-12-29T02:20:21;95874.84;;;5.28;80.87
16834;BME280;8533;48.426;10.868;2022-12-29T02:28:33;95874.03;;;5.36;78.79
16834;BME280;8533;48.426;10.868;2022-12-29T02:36:39;95863.73;;;5.39;79.47
16834;BME280;8533;48.426;10.868;2022-12-29T02:44:42;95865.33;;;5.40;79.39
16834;BME280;8533;48.426;10.868;2022-12-29T02:52:27;95856.33;;;5.43;78.95
16834;BME280;8533;48.426;10.868;2022-12-29T02:54:54;95850.05;;;5.41;78.79
16834;BME280;8533;48.426;10.868;2022-12-29T03:00:07;95850.85;;;5.42;78.96
16834;BME280;8533;48.426;10.868;2022-12-29T03:05:45;95851.20;;;5.36;80.42
16834;BME280;8533;48.426;10.868;2022-12-29T03:08:28;95845.09;;;5.30;81.45
16834;BME280;8533;48.426;10.868;2022-12-29T03:11:04;95845.02;;;5.28;82.18
16834;BME280;8533;48.426;10.868;2022-12-29T03:19:07;95842.93;;;5.27;81.76
16834;BME280;8533;48.426;10.868;2022-12-29T03:21:34;95841.38;;;5.26;81.72
16834;BME280;8533;48.426;10.868;2022-12-29T03:24:22;95834.39;;;5.27;82.28
16834;BME280;8533;48.426;10.868;2022-12-29T03:26:51;95832.94;;;5.22;83.72
16834;BME280;8533;48.426;10.868;2022-12-29T03:29:20;95828.45;;;5.29;82.11
16834;BME280;8533;48.426;10.868;2022-12-29T03:31:50;95828.12;;;5.25;82.98
16834;BME280;8533;48.426;10.868;2022-12-29T03:34:20;95828.83;;;5.23;82.34
16834;BME280;8533;48.426;10.868;2022-12-29T03:36:53;95819.84;;;5.26;82.40
16834;BME280;8533;48.426;10.868;2022-12-29T03:39:22;95822.43;;;5.26;82.05
16834;BME280;8533;48.426;10.868;2022-12-29T03:41:57;95825.73;;;5.33;81.08
16834;BME280;8533;48.426;10.868;2022-12-29T03:44:33;95827.60;;;5.35;81.08
16834;BME280;8533;48.426;10.868;2022-12-29T03:46:53;95826.52;;;5.33;81.02
16834;BME280;8533;48.426;10.868;2022-12-29T03:49:20;95822.46;;;5.37;80.82
16834;BME280;8533;48.426;10.868;2022-12-29T03:51:47;95828.02;;;5.41;81.00
16834;BME280;8533;48.426;10.868;2022-12-29T03:54:15;95822.75;;;5.38;81.09
16834;BME280;8533;48.426;10.868;2022-12-29T03:56:42;95821.88;;;5.35;83.48
16834;BME280;8533;48.426;10.868;2022-12-29T03:59:10;95819.82;;;5.35;82.60
16834;BME280;8533;48.426;10.868;2022-12-29T04:01:37;95817.48;;;5.36;83.33
16834;BME280;8533;48.426;10.868;2022-12-29T04:04:04;95812.09;;;5.37;82.93
16834;BME280;8533;48.426;10.868;2022-12-29T04:06:32;95810.80;;;5.37;83.10
16834;BME280;8533;48.426;10.868;2022-12-29T04:08:59;95807.19;;;5.38;84.10
16834;BME280;8533;48.426;10.868;2022-12-29T04:11:27;95811.59;;;5.38;85.43
16834;BME280;8533;48.426;10.868;2022-12-29T04:13:54;95811.30;;;5.37;88.04
16834;BME280;8533;48.426;10.868;2022-12-29T04:16:22;95814.89;;;5.36;85.81
16834;BME280;8533;48.426;10.868;2022-12-29T04:18:49;95816.19;;;5.36;87.89
16834;BME280;8533;48.426;10.868;2022-12-29T04:21:17;95816.65;;;5.33;88.84
16834;BME280;8533;48.426;10.868;2022-12-29T04:23:44;95817.08;;;5.30;89.05
16834;BME280;8533;48.426;10.868;2022-12-29T04:26:12;95815.06;;;5.32;85.93
16834;BME280;8533;48.426;10.868;2022-12-29T04:28:39;95821.53;;;5.41;85.14
16834;BME280;8533;48.426;10.868;2022-12-29T04:31:06;95816.92;;;5.43;86.33
16834;BME280;8533;48.426;10.868;2022-12-29T04:33:34;95818.27;;;5.46;86.56
16834;BME280;8533;48.426;10.868;2022-12-29T04:36:01;95822.83;;;5.62;82.09
16834;BME280;8533;48.426;10.868;2022-12-29T04:38:29;95819.16;;;6.02;77.35
16834;BME280;8533;48.426;10.868;2022-12-29T04:41:01;95816.72;;;6.30;73.82
16834;BME280;8533;48.426;10.868;2022-12-29T04:43:29;95815.75;;;6.45;72.28
16834;BME280;8533;48.426;10.868;2022-12-29T04:45:56;95815.22;;;6.58;71.29
16834;BME280;8533;48.426;10.868;2022-12-29T04:48:24;95813.66;;;6.82;69.42
16834;BME280;8533;48.426;10.868;2022-12-29T04:50:51;95809.96;;;7.04;67.99
16834;BME280;8533;48.426;10.868;2022-12-29T04:53:19;95804.77;;;7.18;67.81
16834;BME280;8533;48.426;10.868;2022-12-29T04:55:48;95808.08;;;7.28;66.51
16834;BME280;8533;48.426;10.868;2022-12-29T04:58:16;95808.41;;;7.46;65.44
16834;BME280;8533;48.426;10.868;2022-12-29T05:00:43;95799.45;;;7.56;63.99
16834;BME280;8533;48.426;10.868;2022-12-29T05:03:11;95802.59;;;7.72;62.17
16834;BME280;8533;48.426;10.868;2022-12-29T05:05:38;95810.41;;;7.86;61.20
16834;BME280;8533;48.426;10.868;2022-12-29T05:08:05;95804.14;;;8.01;60.54
16834;BME280;8533;48.426;10.868;2022-12-29T05:10:33;95798.59;;;7.98;60.69
16834;BME280;8533;48.426;10.868;2022-12-29T05:13:00;95796.61;;;8.02;60.46
16834;BME280;8533;48.426;10.868;2022-12-29T05:15:28;95800.81;;;8.06;59.82
16834;BME280;8533;48.426;10.868;2022-12-29T05:17:55;95803.14;;;8.05;60.33
16834;BME280;8533;48.426;10.868;2022-12-29T05:20:23;95812.18;;;8.00;60.65
16834;BME280;8533;48.426;10.868;2022-12-29T05:22:50;95809.25;;;7.96;60.62
16834;BME280;8533;48.426;10.868;2022-12-29T05:25:17;95809.69;;;7.91;60.63
16834;BME280;8533;48.426;10.868;2022-12-29T05:27:45;95814.05;;;7.88;61.30
16834;BME280;8533;48.426;10.868;2022-12-29T05:30:12;95810.13;;;7.85;60.73
16834;BME280;8533;48.426;10.868;2022-12-29T05:32:40;95803.36;;;7.87;60.93
16834;BME280;8533;48.426;10.868;2022-12-29T05:35:08;95816.35;;;7.84;60.54
16834;BME280;8533;48.426;10.868;2022-12-29T05:37:35;95811.61;;;7.81;60.64
16834;BME280;8533;48.426;10.868;2022-12-29T05:40:03;95813.57;;;7.74;60.53
16834;BME280;8533;48.426;10.868;2022-12-29T05:42:31;95813.78;;;7.70;61.56
16834;BME280;8533;48.426;10.868;2022-12-29T05:44:58;95801.80;;;7.72;61.69
16834;BME280;8533;48.426;10.868;2022-12-29T05:47:26;95804.67;;;7.70;60.48
16834;BME280;8533;48.426;10.868;2022-12-29T05:49:53;95798.16;;;7.70;61.06
16834;BME280;8533;48.426;10.868;2022-12-29T05:52:20;95810.92;;;7.72;61.99
16834;BME280;8533;48.426;10.868;2022-12-29T05:54:48;95817.68;;;7.70;61.68
16834;BME280;8533;48.426;10.868;2022-12-29T05:57:15;95813.29;;;7.73;61.27
16834;BME280;8533;48.426;10.868;2022-12-29T05:59:42;95819.01;;;7.73;62.18
16834;BME280;8533;48.426;10.868;2022-12-29T06:02:10;95822.34;;;7.71;62.34
16834;BME280;8533;48.426;10.868;2022-12-29T06:04:37;95822.05;;;7.67;63.33
16834;BME280;8533;48.426;10.868;2022-12-29T06:07:05;95831.81;;;7.60;63.90
16834;BME280;8533;48.426;10.868;2022-12-29T06:09:32;95826.41;;;7.64;63.32
16834;BME280;8533;48.426;10.868;2022-12-29T06:12:00;95838.45;;;7.68;63.63
16834;BME280;8533;48.426;10.868;2022-12-29T06:14:27;95830.81;;;7.63;64.06
16834;BME280;8533;48.426;10.868;2022-12-29T06:16:54;95820.97;;;7.65;64.29
16834;BME280;8533;48.426;10.868;2022-12-29T06:19:22;95808.80;;;7.69;65.04
16834;BME280;8533;48.426;10.868;2022-12-29T06:21:49;95812.98;;;7.70;64.25
16834;BME280;8533;48.426;10.868;2022-12-29T06:24:18;95808.98;;;7.64;66.05
16834;BME280;8533;48.426;10.868;2022-12-29T06:26:46;95816.98;;;7.60;66.21
16834;BME280;8533;48.426;10.868;2022-12-29T06:29:13;95822.09;;;7.55;66.80
16834;BME280;8533;48.426;10.868;2022-12-29T06:31:46;95820.76;;;7.53;66.89
16834;BME280;8533;48.426;10.868;2022-12-29T06:34:15;95829.44;;;7.58;66.66
16834;BME280;8533;48.426;10.868;2022-12-29T06:36:42;95824.41;;;7.54;67.69
16834;BME280;8533;48.426;10.868;2022-12-29T06:39:10;95823.45;;;7.44;68.70
16834;BME280;8533;48.426;10.868;2022-12-29T06:41:38;95822.23;;;7.35;69.59
16834;BME280;8533;48.426;10.868;2022-12-29T06:44:05;95829.70;;;7.31;70.07
16834;BME280;8533;48.426;10.868;2022-12-29T06:46:33;95828.38;;;7.28;70.08
16834;BME280;8533;48.426;10.868;2022-12-29T06:49:00;95835.11;;;7.27;70.83
16834;BME280;8533;48.426;10.868;2022-12-29T06:51:27;95838.89;;;7.22;70.76
16834;BME280;8533;48.426;10.868;2022-12-29T06:53:55;95838.22;;;7.26;70.88
16834;BME280;8533;48.426;10.868;2022-12-29T06:56:22;95834.73;;;7.21;71.92
16834;BME280;8533;48.426;10.868;2022-12-29T06:58:50;95840.55;;;7.14;73.42
16834;BME280;8533;48.426;10.868;2022-12-29T07:01:17;95833.03;;;7.15;72.86
16834;BME280;8533;48.426;10.868;2022-12-29T07:03:44;95836.84;;;7.10;74.15
16834;BME280;8533;48.426;10.868;2022-12-29T07:06:12;95830.44;;;7.15;74.78
16834;BME280;8533;48.426;10.868;2022-12-29T07:08:39;95826.08;;;7.18;75.76
16834;BME280;8533;48.426;10.868;2022-12-29T07:11:07;95828.69;;;7.32;74.89
16834;BME280;8533;48.426;10.868;2022-12-29T07:13:34;95835.98;;;7.47;74.49
16834;BME280;8533;48.426;10.868;2022-12-29T07:16:06;95838.41;;;7.51;74.93
16834;BME280;8533;48.426;10.868;2022-12-29T07:18:34;95837.19;;;7.56;74.81
16834;BME280;8533;48.426;10.868;2022-12-29T07:21:02;95846.36;;;7.58;75.03
16834;BME280;8533;48.426;10.868;2022-12-29T07:23:29;95846.92;;;7.60;75.23
16834;BME280;8533;48.426;10.868;2022-12-29T07:26:02;95844.91;;;7.65;75.08
16834;BME280;8533;48.426;10.868;2022-12-29T07:28:30;95844.45;;;7.68;75.02
16834;BME280;8533;48.426;10.868;2022-12-29T07:30:59;95829.85;;;7.67;75.06
16834;BME280;8533;48.426;10.868;2022-12-29T07:33:28;95824.82;;;7.63;75.81
16834;BME280;8533;48.426;10.868;2022-12-29T07:35:56;95822.50;;;7.64;75.66
16834;BME280;8533;48.426;10.868;2022-12-29T07:38:23;95826.41;;;7.64;75.19
16834;BME280;8533;48.426;10.868;2022-12-29T07:40:50;95826.91;;;7.63;75.50
16834;BME280;8533;48.426;10.868;2022-12-29T07:43:18;95817.34;;;7.66;76.55
16834;BME280;8533;48.426;10.868;2022-12-29T07:45:45;95823.70;;;7.73;75.76
16834;BME280;8533;48.426;10.868;2022-12-29T07:48:14;95818.85;;;7.79;75.87
16834;BME280;8533;48.426;10.868;2022-12-29T07:50:41;95811.14;;;7.84;75.47
16834;BME280;8533;48.426;10.868;2022-12-29T07:53:09;95803.41;;;7.89;75.34
16834;BME280;8533;48.426;10.868;2022-12-29T07:55:36;95813.59;;;7.91;75.24
16834;BME280;8533;48.426;10.868;2022-12-29T07:58:03;95807.66;;;7.95;75.07
16834;BME280;8533;48.426;10.868;2022-12-29T08:00:31;95804.67;;;8.03;74.23
16834;BME280;8533;48.426;10.868;2022-12-29T08:02:59;95811.27;;;8.09;73.61
16834;BME280;8533;48.426;10.868;2022-12-29T08:05:26;95808.00;;;8.16;72.95
16834;BME280;8533;48.426;10.868;2022-12-29T08:07:53;95821.70;;;8.25;72.61
16834;BME280;8533;48.426;10.868;2022-12-29T08:10:21;95822.95;;;8.23;72.72
16834;BME280;8533;48.426;10.868;2022-12-29T08:12:48;95816.50;;;8.28;72.14
16834;BME280;8533;48.426;10.868;2022-12-29T08:15:16;95822.78;;;8.29;71.82
16834;BME280;8533;48.426;10.868;2022-12-29T08:17:43;95835.16;;;8.36;71.90
16834;BME280;8533;48.426;10.868;2022-12-29T08:20:11;95835.27;;;8.44;71.78
16834;BME280;8533;48.426;10.868;2022-12-29T08:22:38;95834.06;;;8.49;71.15
16834;BME280;8533;48.426;10.868;2022-12-29T08:25:06;95840.13;;;8.55;71.14
16834;BME280;8533;48.426;10.868;2022-12-29T08:27:33;95843.81;;;8.56;71.35
16834;BME280;8533;48.426;10.868;2022-12-29T08:30:01;95844.89;;;8.60;71.46
16834;BME280;8533;48.426;10.868;2022-12-29T08:32:28;95849.31;;;8.60;71.19
16834;BME280;8533;48.426;10.868;2022-12-29T08:34:56;95850.66;;;8.62;71.55
16834;BME280;8533;48.426;10.868;2022-12-29T08:37:23;95847.37;;;8.69;71.47
16834;BME280;8533;48.426;10.868;2022-12-29T08:39:51;95856.48;;;8.67;71.75
16834;BME280;8533;48.426;10.868;2022-12-29T08:42:18;95847.08;;;8.66;72.67
16834;BME280;8533;48.426;10.868;2022-12-29T08:44:45;95845.27;;;8.69;72.98
16834;BME280;8533;48.426;10.868;2022-12-29T08:47:13;95857.61;;;8.73;72.58
16834;BME280;8533;48.426;10.868;2022-12-29T08:49:40;95848.25;;;8.75;72.95
16834;BME280;8533;48.426;10.868;2022-12-29T08:52:08;95841.27;;;8.80;71.77
16834;BME280;8533;48.426;10.868;2022-12-29T08:54:35;95837.70;;;8.87;71.58
16834;BME280;8533;48.426;10.868;2022-12-29T08:57:03;95847.44;;;8.94;70.94
16834;BME280;8533;48.426;10.868;2022-12-29T08:59:30;95849.57;;;8.97;71.57
16834;BME280;8533;48.426;10.868;2022-12-29T09:01:57;95841.84;;;9.04;71.28
16834;BME280;8533;48.426;10.868;2022-12-29T09:04:25;95847.91;;;9.10;71.28
16834;BME280;8533;48.426;10.868;2022-12-29T09:06:53;95851.90;;;9.15;71.64
16834;BME280;8533;48.426;10.868;2022-12-29T09:09:21;95855.82;;;9.17;71.50
16834;BME280;8533;48.426;10.868;2022-12-29T09:11:48;95860.33;;;9.22;72.02
16834;BME280;8533;48.426;10.868;2022-12-29T09:14:16;95863.73;;;9.23;72.32
16834;BME280;8533;48.426;10.868;2022-12-29T09:16:43;95867.14;;;9.26;72.74
16834;BME280;8533;48.426;10.868;2022-12-29T09:19:28;95868.48;;;9.28;72.90
16834;BME280;8533;48.426;10.868;2022-12-29T09:21:57;95876.13;;;9.35;72.26
16834;BME280;8533;48.426;10.868;2022-12-29T09:24:24;95879.10;;;9.43;71.82
16834;BME280;8533;48.426;10.868;2022-12-29T09:26:52;95873.09;;;9.43;72.94
16834;BME280;8533;48.426;10.868;2022-12-29T09:29:19;95874.71;;;9.46;72.54
16834;BME280;8533;48.426;10.868;2022-12-29T09:31:47;95871.11;;;9.52;72.25
16834;BME280;8533;48.426;10.868;2022-12-29T09:34:14;95872.97;;;9.54;72.45
16834;BME280;8533;48.426;10.868;2022-12-29T09:36:41;95872.02;;;9.63;71.68
16834;BME280;8533;48.426;10.868;2022-12-29T09:39:09;95867.05;;;9.62;71.91
16834;BME280;8533;48.426;10.868;2022-12-29T09:41:45;95872.34;;;9.69;71.15
16834;BME280;8533;48.426;10.868;2022-12-29T09:44:23;95881.01;;;9.75;71.27
16834;BME280;8533;48.426;10.868;2022-12-29T09:46:49;95878.98;;;9.82;70.69
16834;BME280;8533;48.426;10.868;2022-12-29T09:49:27;95883.22;;;9.85;70.38
16834;BME280;8533;48.426;10.868;2022-12-29T09:51:55;95879.81;;;9.85;70.50
16834;BME280;8533;48.426;10.868;2022-12-29T09:57:02;95873.08;;;9.89;70.33
16834;BME280;8533;48.426;10.868;2022-12-29T09:59:40;95873.36;;;9.92;70.37
16834;BME280;8533;48.426;10.868;2022-12-29T10:02:26;95869.71;;;9.93;69.98
16834;BME280;8533;48.426;10.868;2022-12-29T10:04:51;95871.84;;;9.99;69.41
16834;BME280;8533;48.426;10.868;2022-12-29T10:07:39;95862.73;;;10.02;69.52
16834;BME280;8533;48.426;10.868;2022-12-29T10:10:26;95861.45;;;10.04;69.16
16834;BME280;8533;48.426;10.868;2022-12-29T10:13:01;95856.23;;;10.07;69.06
16834;BME280;8533;48.426;10.868;2022-12-29T10:20:42;95851.41;;;10.18;68.88
16834;BME280;8533;48.426;10.868;2022-12-29T10:26:01;95830.91;;;10.39;67.94
16834;BME280;8533;48.426;10.868;2022-12-29T10:28:38;95823.95;;;10.55;66.39
16834;BME280;8533;48.426;10.868;2022-12-29T10:31:24;95836.61;;;10.68;65.91
16834;BME280;8533;48.426;10.868;2022-12-29T10:33:53;95832.20;;;10.79;65.87
16834;BME280;8533;48.426;10.868;2022-12-29T10:36:34;95828.09;;;10.90;64.87
16834;BME280;8533;48.426;10.868;2022-12-29T10:39:19;95836.73;;;10.91;65.08
16834;BME280;8533;48.426;10.868;2022-12-29T10:41:55;95822.36;;;10.93;64.62
16834;BME280;8533;48.426;10.868;2022-12-29T10:44:21;95823.66;;;10.96;64.25
16834;BME280;8533;48.426;10.868;2022-12-29T10:46:54;95828.88;;;10.91;64.15
16834;BME280;8533;48.426;10.868;2022-12-29T10:49:20;95827.03;;;10.89;64.84
16834;BME280;8533;48.426;10.868;2022-12-29T10:51:49;95824.94;;;10.88;64.56
16834;BME280;8533;48.426;10.868;2022-12-29T10:54:23;95825.48;;;10.90;65.54
16834;BME280;8533;48.426;10.868;2022-12-29T10:56:56;95833.57;;;10.89;65.36
16834;BME280;8533;48.426;10.868;2022-12-29T10:59:30;95819.72;;;10.91;65.24
16834;BME280;8533;48.426;10.868;2022-12-29T11:02:11;95817.40;;;10.94;66.10
16834;BME280;8533;48.426;10.868;2022-12-29T11:07:18;95820.81;;;11.00;65.00
16834;BME280;8533;48.426;10.868;2022-12-29T11:09:46;95817.41;;;10.99;64.66
16834;BME280;8533;48.426;10.868;2022-12-29T11:17:45;95821.84;;;10.94;63.93
16834;BME280;8533;48.426;10.868;2022-12-29T11:20:24;95799.88;;;11.00;63.16
16834;BME280;8533;48.426;10.868;2022-12-29T11:22:47;95796.77;;;11.08;62.88
16834;BME280;8533;48.426;10.868;2022-12-29T11:25:15;95794.41;;;11.12;62.57
16834;BME280;8533;48.426;10.868;2022-12-29T11:27:57;95804.67;;;11.18;62.25
16834;BME280;8533;48.426;10.868;2022-12-29T11:30:27;95800.76;;;11.28;61.81
16834;BME280;8533;48.426;10.868;2022-12-29T11:32:58;95795.02;;;11.36;61.43
16834;BME280;8533;48.426;10.868;2022-12-29T11:35:36;95810.01;;;11.51;60.43
16834;BME280;8533;48.426;10.868;2022-12-29T11:37:59;95808.44;;;11.55;60.50
16834;BME280;8533;48.426;10.868;2022-12-29T11:40:27;95808.20;;;11.64;59.86
16834;BME280;8533;48.426;10.868;2022-12-29T11:42:59;95809.25;;;11.66;60.51
16834;BME280;8533;48.426;10.868;2022-12-29T11:45:37;95809.02;;;11.77;59.42
16834;BME280;8533;48.426;10.868;2022-12-29T11:48:20;95803.27;;;11.85;59.36
16834;BME280;8533;48.426;10.868;2022-12-29T11:50:53;95798.56;;;11.82;59.37
16834;BME280;8533;48.426;10.868;2022-12-29T11:56:15;95790.16;;;11.85;60.07
16834;BME280;8533;48.426;10.868;2022-12-29T11:58:39;95791.75;;;11.81;60.35
16834;BME280;8533;48.426;10.868;2022-12-29T12:01:13;95794.11;;;11.83;60.43
16834;BME280;8533;48.426;10.868;2022-12-29T12:03:46;95793.83;;;11.84;59.50
16834;BME280;8533;48.426;10.868;2022-12-29T12:06:16;95795.94;;;11.82;59.50
16834;BME280;8533;48.426;10.868;2022-12-29T12:08:53;95787.02;;;11.78;59.99
16834;BME280;8533;48.426;10.868;2022-12-29T12:11:30;95773.38;;;11.76;59.90
16834;BME280;8533;48.426;10.868;2022-12-29T12:14:00;95781.47;;;11.70;60.43
16834;BME280;8533;48.426;10.868;2022-12-29T12:16:41;95783.58;;;11.65;60.60
16834;BME280;8533;48.426;10.868;2022-12-29T12:19:32;95788.02;;;11.62;61.39
16834;BME280;8533;48.426;10.868;2022-12-29T12:22:43;95790.09;;;11.55;61.95
16834;BME280;8533;48.426;10.868;2022-12-29T12:24:41;95780.42;;;11.58;61.63
16834;BME280;8533;48.426;10.868;2022-12-29T12:35:26;95781.19;;;11.54;63.43
16834;BME280;8533;48.426;10.868;2022-12-29T12:38:32;95778.56;;;11.54;63.63
16834;BME280;8533;48.426;10.868;2022-12-29T12:43:14;95775.95;;;11.56;63.85
16834;BME280;8533;48.426;10.868;2022-12-29T12:48:24;95770.21;;;11.59;63.71
16834;BME280;8533;48.426;10.868;2022-12-29T12:50:45;95762.36;;;11.59;63.57
16834;BME280;8533;48.426;10.868;2022-12-29T12:53:26;95768.63;;;11.61;63.68
16834;BME280;8533;48.426;10.868;2022-12-29T13:04:02;95775.17;;;11.68;64.82
16834;BME280;8533;48.426;10.868;2022-12-29T13:09:25;95773.87;;;11.63;65.17
16834;BME280;8533;48.426;10.868;2022-12-29T13:12:14;95764.45;;;11.65;64.81
16834;BME280;8533;48.426;10.868;2022-12-29T13:17:26;95767.59;;;11.59;66.00
16834;BME280;8533;48.426;10.868;2022-12-29T13:25:46;95762.34;;;11.57;66.37
16834;BME280;8533;48.426;10.868;2022-12-29T13:28:04;95754.99;;;11.54;66.71
16834;BME280;8533;48.426;10.868;2022-12-29T13:30:58;95757.36;;;11.50;67.06
16834;BME280;8533;48.426;10.868;2022-12-29T13:33:19;95754.47;;;11.49;67.53
16834;BME280;8533;48.426;10.868;2022-12-29T13:35:50;95756.02;;;11.45;67.85
16834;BME280;8533;48.426;10.868;2022-12-29T13:38:29;95756.55;;;11.39;68.84
16834;BME280;8533;48.426;10.868;2022-12-29T13:40:59;95759.16;;;11.34;69.83
16834;BME280;8533;48.426;10.868;2022-12-29T13:43:28;95759.15;;;11.37;69.68
16834;BME280;8533;48.426;10.868;2022-12-29T13:46:01;95761.75;;;11.29;70.73
16834;BME280;8533;48.426;10.868;2022-12-29T13:48:34;95766.21;;;11.26;71.04
16834;BME280;8533;48.426;10.868;2022-12-29T13:51:00;95758.34;;;11.19;71.48
16834;BME280;8533;48.426;10.868;2022-12-29T13:53:37;95750.72;;;11.20;71.26
16834;BME280;8533;48.426;10.868;2022-12-29T13:56:07;95752.84;;;11.18;71.65
16834;BME280;8533;48.426;10.868;2022-12-29T14:04:14;95745.75;;;11.11;72.43
16834;BME280;8533;48.426;10.868;2022-12-29T14:06:42;95754.11;;;11.13;72.39
16834;BME280;8533;48.426;10.868;2022-12-29T14:09:45;95761.19;;;11.09;72.84
16834;BME280;8533;48.426;10.868;2022-12-29T14:12:40;95759.84;;;11.04;73.55
16834;BME280;8533;48.426;10.868;2022-12-29T14:15:21;95763.50;;;11.03;73.55
16834;BME280;8533;48.426;10.868;2022-12-29T14:18:02;95766.65;;;11.00;73.47
16834;BME280;8533;48.426;10.868;2022-12-29T14:20:25;95776.84;;;10.99;73.42
16834;BME280;8533;48.426;10.868;2022-12-29T14:23:15;95773.44;;;10.94;73.82
16834;BME280;8533;48.426;10.868;2022-12-29T14:28:16;95776.54;;;10.86;73.47
16834;BME280;8533;48.426;10.868;2022-12-29T14:30:47;95779.63;;;10.80;74.08
16834;BME280;8533;48.426;10.868;2022-12-29T14:33:16;95784.58;;;10.74;74.94
16834;BME280;8533;48.426;10.868;2022-12-29T14:35:46;95793.72;;;10.71;74.43
16834;BME280;8533;48.426;10.868;2022-12-29T14:38:28;95793.17;;;10.67;75.07
16834;BME280;8533;48.426;10.868;2022-12-29T14:40:52;95796.53;;;10.62;75.24
16834;BME280;8533;48.426;10.868;2022-12-29T14:43:26;95791.86;;;10.62;74.78
16834;BME280;8533;48.426;10.868;2022-12-29T14:45:54;95791.30;;;10.62;74.48
16834;BME280;8533;48.426;10.868;2022-12-29T14:50:53;95798.07;;;10.56;75.02
16834;BME280;8533;48.426;10.868;2022-12-29T14:53:45;95790.23;;;10.53;75.56
16834;BME280;8533;48.426;10.868;2022-12-29T14:56:11;95791.27;;;10.55;75.02
16834;BME280;8533;48.426;10.868;2022-12-29T14:58:54;95785.50;;;10.50;75.35
16834;BME280;8533;48.426;10.868;2022-12-29T15:01:49;95789.91;;;10.45;76.07
16834;BME280;8533;48.426;10.868;2022-12-29T15:04:30;95780.98;;;10.41;76.19
16834;BME280;8533;48.426;10.868;2022-12-29T15:06:55;95779.93;;;10.37;76.02
16834;BME280;8533;48.426;10.868;2022-12-29T15:09:34;95790.88;;;10.33;76.32
16834;BME280;8533;48.426;10.868;2022-12-29T15:14:59;95793.42;;;10.21;76.80